sensor_id;sensor_type;location;lat;lon;timestamp;temperature;humidity
3976;DHT22;2002;48.812;9.180;2022-12-20T00:00:23;16.60;1.00
3976;DHT22;2002;48.812;9.180;2022-12-20T00:02:48;16.60;1.00
3976;DHT22;2002;48.812;9.180;2022-12-20T00:05:14;16.50;1.00
3976;DHT22;2002;48.812;9.180;2022-12-20T00:07:39;16.40;1.00
3976;DHT22;2002;48.812;9.180;2022-12-20T00:10:05;16.40;1.00
3976;DHT22;2002;48.812;9.180;2022-12-20T00:12:31;16.30;1.00
3976;DHT22;2002;48.812;9.180;2022-12-20T00:14:57;16.30;1.00
3976;DHT22;2002;48.812;9.180;2022-12-20T00:17:22;16.20;1.00
3976;DHT22;2002;48.812;9.180;2022-12-20T00:19:48;16.20;1.00
3976;DHT22;2002;48.812;9.180;2022-12-20T00:22:13;16.10;1.00
3976;DHT22;2002;48.812;9.180;2022-12-20T00:24:39;16.10;1.00
3976;DHT22;2002;48.812;9.180;2022-12-20T00:27:04;16.00;1.00
3976;DHT22;2002;48.812;9.180;2022-12-20T00:29:30;16.00;1.00
3976;DHT22;2002;48.812;9.180;2022-12-20T00:31:55;15.90;1.00
3976;DHT22;2002;48.812;9.180;2022-12-20T00:34:21;15.90;1.00
3976;DHT22;2002;48.812;9.180;2022-12-20T00:36:46;15.80;1.00
3976;DHT22;2002;48.812;9.180;2022-12-20T00:39:12;15.80;1.00
3976;DHT22;2002;48.812;9.180;2022-12-20T00:41:37;15.70;1.00
3976;DHT22;2002;48.812;9.180;2022-12-20T00:44:03;15.80;1.00
3976;DHT22;2002;48.812;9.180;2022-12-20T00:46:30;15.70;1.00
3976;DHT22;2002;48.812;9.180;2022-12-20T00:48:56;15.60;1.00
3976;DHT22;2002;48.812;9.180;2022-12-20T00:51:26;15.60;1.00
3976;DHT22;2002;48.812;9.180;2022-12-20T00:53:53;15.60;1.00
3976;DHT22;2002;48.812;9.180;2022-12-20T00:56:19;15.60;1.00
3976;DHT22;2002;48.812;9.180;2022-12-20T00:58:45;15.50;1.00
3976;DHT22;2002;48.812;9.180;2022-12-20T01:01:31;15.50;1.00
3976;DHT22;2002;48.812;9.180;2022-12-20T01:03:59;15.50;1.00
3976;DHT22;2002;48.812;9.180;2022-12-20T01:06:25;15.50;1.00
3976;DHT22;2002;48.812;9.180;2022-12-20T01:08:52;15.50;1.00
3976;DHT22;2002;48.812;9.180;2022-12-20T01:11:21;15.50;1.00
3976;DHT22;2002;48.812;9.180;2022-12-20T01:13:49;15.60;1.00
3976;DHT22;2002;48.812;9.180;2022-12-20T01:16:21;15.90;1.00
3976;DHT22;2002;48.812;9.180;2022-12-20T01:18:47;16.20;1.00
3976;DHT22;2002;48.812;9.180;2022-12-20T01:21:15;16.40;1.00
3976;DHT22;2002;48.812;9.180;2022-12-20T01:23:41;16.50;1.00
3976;DHT22;2002;48.812;9.180;2022-12-20T01:26:09;16.60;1.00
3976;DHT22;2002;48.812;9.180;2022-12-20T01:28:37;16.50;1.00
3976;DHT22;2002;48.812;9.180;2022-12-20T01:31:08;16.50;1.00
3976;DHT22;2002;48.812;9.180;2022-12-20T01:33:35;16.50;1.00
3976;DHT22;2002;48.812;9.180;2022-12-20T01:36:03;16.40;1.00
3976;DHT22;2002;48.812;9.180;2022-12-20T01:38:29;16.30;1.00
3976;DHT22;2002;48.812;9.180;2022-12-20T01:40:55;16.20;1.00
3976;DHT22;2002;48.812;9.180;2022-12-20T01:43:22;16.20;1.00
3976;DHT22;2002;48.812;9.180;2022-12-20T01:45:49;16.10;1.00
3976;DHT22;2002;48.812;9.180;2022-12-20T01:48:18;16.10;1.00
3976;DHT22;2002;48.812;9.180;2022-12-20T01:50:46;16.10;1.00
3976;DHT22;2002;48.812;9.180;2022-12-20T01:53:14;16.00;1.00
3976;DHT22;2002;48.812;9.180;2022-12-20T01:55:40;16.00;1.00
3976;DHT22;2002;48.812;9.180;2022-12-20T01:58:11;16.00;1.00
3976;DHT22;2002;48.812;9.180;2022-12-20T02:00:37;15.90;1.00
3976;DHT22;2002;48.812;9.180;2022-12-20T02:03:09;15.90;1.00
3976;DHT22;2002;48.812;9.180;2022-12-20T02:05:38;15.80;1.00
3976;DHT22;2002;48.812;9.180;2022-12-20T02:08:05;15.70;1.00
3976;DHT22;2002;48.812;9.180;2022-12-20T02:13:14;15.70;1.00
3976;DHT22;2002;48.812;9.180;2022-12-20T02:15:54;15.60;1.00
3976;DHT22;2002;48.812;9.180;2022-12-20T02:18:28;15.60;1.00
3976;DHT22;2002;48.812;9.180;2022-12-20T02:29:32;15.50;1.00
3976;DHT22;2002;48.812;9.180;2022-12-20T02:32:07;15.50;1.00
3976;DHT22;2002;48.812;9.180;2022-12-20T02:34:35;15.50;1.00
3976;DHT22;2002;48.812;9.180;2022-12-20T02:37:02;15.50;1.00
3976;DHT22;2002;48.812;9.180;2022-12-20T02:39:29;15.60;1.00
3976;DHT22;2002;48.812;9.180;2022-12-20T02:42:06;15.90;1.00
3976;DHT22;2002;48.812;9.180;2022-12-20T02:44:37;16.20;1.00
3976;DHT22;2002;48.812;9.180;2022-12-20T02:47:31;16.40;1.00
3976;DHT22;2002;48.812;9.180;2022-12-20T02:49:58;16.60;1.00
3976;DHT22;2002;48.812;9.180;2022-12-20T02:52:26;16.60;1.00
3976;DHT22;2002;48.812;9.180;2022-12-20T02:54:55;16.60;1.00
3976;DHT22;2002;48.812;9.180;2022-12-20T02:57:31;16.60;1.00
3976;DHT22;2002;48.812;9.180;2022-12-20T03:00:06;16.40;1.00
3976;DHT22;2002;48.812;9.180;2022-12-20T03:02:33;16.40;1.00
3976;DHT22;2002;48.812;9.180;2022-12-20T03:05:21;16.30;1.00
3976;DHT22;2002;48.812;9.180;2022-12-20T03:07:48;16.30;1.00
3976;DHT22;2002;48.812;9.180;2022-12-20T03:10:14;16.20;1.00
3976;DHT22;2002;48.812;9.180;2022-12-20T03:12:40;16.10;1.00
3976;DHT22;2002;48.812;9.180;2022-12-20T03:15:06;16.10;1.00
3976;DHT22;2002;48.812;9.180;2022-12-20T03:17:31;16.10;1.00
3976;DHT22;2002;48.812;9.180;2022-12-20T03:19:57;16.00;1.00
3976;DHT22;2002;48.812;9.180;2022-12-20T03:22:22;16.00;1.00
3976;DHT22;2002;48.812;9.180;2022-12-20T03:24:48;15.90;1.00
3976;DHT22;2002;48.812;9.180;2022-12-20T03:27:14;15.90;1.00
3976;DHT22;2002;48.812;9.180;2022-12-20T03:29:40;15.90;1.00
3976;DHT22;2002;48.812;9.180;2022-12-20T03:32:06;15.80;1.00
3976;DHT22;2002;48.812;9.180;2022-12-20T03:34:32;15.80;1.00
3976;DHT22;2002;48.812;9.180;2022-12-20T03:36:57;15.80;1.00
3976;DHT22;2002;48.812;9.180;2022-12-20T03:39:23;15.70;1.00
3976;DHT22;2002;48.812;9.180;2022-12-20T03:41:48;15.70;1.00
3976;DHT22;2002;48.812;9.180;2022-12-20T03:44:14;15.60;1.00
3976;DHT22;2002;48.812;9.180;2022-12-20T03:46:39;15.60;1.00
3976;DHT22;2002;48.812;9.180;2022-12-20T03:49:05;15.50;1.00
3976;DHT22;2002;48.812;9.180;2022-12-20T03:51:30;15.50;1.00
3976;DHT22;2002;48.812;9.180;2022-12-20T03:53:56;15.60;1.00
3976;DHT22;2002;48.812;9.180;2022-12-20T03:56:22;15.50;1.00
3976;DHT22;2002;48.812;9.180;2022-12-20T03:58:48;15.40;1.00
3976;DHT22;2002;48.812;9.180;2022-12-20T04:01:22;15.50;1.00
3976;DHT22;2002;48.812;9.180;2022-12-20T04:03:48;15.50;1.00
3976;DHT22;2002;48.812;9.180;2022-12-20T04:06:15;15.50;1.00
3976;DHT22;2002;48.812;9.180;2022-12-20T04:08:41;15.80;1.00
3976;DHT22;2002;48.812;9.180;2022-12-20T04:11:06;16.10;1.00
3976;DHT22;2002;48.812;9.180;2022-12-20T04:13:46;16.40;1.00
3976;DHT22;2002;48.812;9.180;2022-12-20T04:16:13;16.60;1.00
3976;DHT22;2002;48.812;9.180;2022-12-20T04:18:39;16.60;1.00
3976;DHT22;2002;48.812;9.180;2022-12-20T04:21:04;16.60;1.00
3976;DHT22;2002;48.812;9.180;2022-12-20T04:23:32;16.50;1.00
3976;DHT22;2002;48.812;9.180;2022-12-20T04:25:59;16.50;1.00
3976;DHT22;2002;48.812;9.180;2022-12-20T04:28:24;16.50;1.00
3976;DHT22;2002;48.812;9.180;2022-12-20T04:30:50;16.40;1.00
3976;DHT22;2002;48.812;9.180;2022-12-20T04:33:15;16.30;1.00
3976;DHT22;2002;48.812;9.180;2022-12-20T04:35:41;16.20;1.00
3976;DHT22;2002;48.812;9.180;2022-12-20T04:38:06;16.30;1.00
3976;DHT22;2002;48.812;9.180;2022-12-20T04:40:32;16.10;1.00
3976;DHT22;2002;48.812;9.180;2022-12-20T04:42:57;16.10;1.00
3976;DHT22;2002;48.812;9.180;2022-12-20T04:45:23;16.00;1.00
3976;DHT22;2002;48.812;9.180;2022-12-20T04:47:48;16.00;1.00
3976;DHT22;2002;48.812;9.180;2022-12-20T04:50:14;16.00;1.00
3976;DHT22;2002;48.812;9.180;2022-12-20T04:52:40;15.90;1.00
3976;DHT22;2002;48.812;9.180;2022-12-20T04:55:24;15.90;1.00
3976;DHT22;2002;48.812;9.180;2022-12-20T04:57:49;15.80;1.00
3976;DHT22;2002;48.812;9.180;2022-12-20T05:00:15;15.80;1.00
3976;DHT22;2002;48.812;9.180;2022-12-20T05:02:41;15.80;1.00
3976;DHT22;2002;48.812;9.180;2022-12-20T05:05:07;15.70;1.00
3976;DHT22;2002;48.812;9.180;2022-12-20T05:07:32;15.70;1.00
3976;DHT22;2002;48.812;9.180;2022-12-20T05:09:58;15.60;1.00
3976;DHT22;2002;48.812;9.180;2022-12-20T05:12:23;15.60;1.00
3976;DHT22;2002;48.812;9.180;2022-12-20T05:14:49;15.60;1.00
3976;DHT22;2002;48.812;9.180;2022-12-20T05:17:15;15.60;1.00
3976;DHT22;2002;48.812;9.180;2022-12-20T05:19:40;15.60;1.00
3976;DHT22;2002;48.812;9.180;2022-12-20T05:22:06;15.50;1.00
3976;DHT22;2002;48.812;9.180;2022-12-20T05:24:50;15.50;1.00
3976;DHT22;2002;48.812;9.180;2022-12-20T05:27:44;15.50;1.00
3976;DHT22;2002;48.812;9.180;2022-12-20T05:30:10;15.50;1.00
3976;DHT22;2002;48.812;9.180;2022-12-20T05:32:36;15.70;1.00
3976;DHT22;2002;48.812;9.180;2022-12-20T05:35:02;16.10;1.00
3976;DHT22;2002;48.812;9.180;2022-12-20T05:37:27;16.60;1.00
3976;DHT22;2002;48.812;9.180;2022-12-20T05:39:53;17.00;1.00
3976;DHT22;2002;48.812;9.180;2022-12-20T05:42:18;17.30;1.00
3976;DHT22;2002;48.812;9.180;2022-12-20T05:44:44;17.10;1.00
3976;DHT22;2002;48.812;9.180;2022-12-20T05:47:10;17.10;1.00
3976;DHT22;2002;48.812;9.180;2022-12-20T05:49:35;17.10;1.00
3976;DHT22;2002;48.812;9.180;2022-12-20T05:52:01;17.00;1.00
3976;DHT22;2002;48.812;9.180;2022-12-20T05:54:27;16.80;1.00
3976;DHT22;2002;48.812;9.180;2022-12-20T05:56:53;16.70;1.00
3976;DHT22;2002;48.812;9.180;2022-12-20T05:59:18;16.70;1.00
3976;DHT22;2002;48.812;9.180;2022-12-20T06:01:44;16.60;1.00
3976;DHT22;2002;48.812;9.180;2022-12-20T06:04:09;16.50;1.00
3976;DHT22;2002;48.812;9.180;2022-12-20T06:06:35;16.40;1.00
3976;DHT22;2002;48.812;9.180;2022-12-20T06:09:01;16.40;1.00
3976;DHT22;2002;48.812;9.180;2022-12-20T06:11:26;16.40;1.00
3976;DHT22;2002;48.812;9.180;2022-12-20T06:13:52;16.30;1.00
3976;DHT22;2002;48.812;9.180;2022-12-20T06:16:17;16.30;1.00
3976;DHT22;2002;48.812;9.180;2022-12-20T06:18:45;16.20;1.00
3976;DHT22;2002;48.812;9.180;2022-12-20T06:21:10;16.20;1.00
3976;DHT22;2002;48.812;9.180;2022-12-20T06:23:36;16.20;1.00
3976;DHT22;2002;48.812;9.180;2022-12-20T06:26:02;16.10;1.00
3976;DHT22;2002;48.812;9.180;2022-12-20T06:28:29;16.10;1.00
3976;DHT22;2002;48.812;9.180;2022-12-20T06:30:56;16.10;1.00
3976;DHT22;2002;48.812;9.180;2022-12-20T06:33:21;16.00;1.00
3976;DHT22;2002;48.812;9.180;2022-12-20T06:35:49;16.00;1.00
3976;DHT22;2002;48.812;9.180;2022-12-20T06:38:14;16.00;1.00
3976;DHT22;2002;48.812;9.180;2022-12-20T06:40:40;15.90;1.00
3976;DHT22;2002;48.812;9.180;2022-12-20T06:43:07;15.90;1.00
3976;DHT22;2002;48.812;9.180;2022-12-20T06:45:32;15.90;1.00
3976;DHT22;2002;48.812;9.180;2022-12-20T06:47:58;15.90;1.00
3976;DHT22;2002;48.812;9.180;2022-12-20T06:50:24;15.90;1.00
3976;DHT22;2002;48.812;9.180;2022-12-20T06:52:50;15.90;1.00
3976;DHT22;2002;48.812;9.180;2022-12-20T06:55:15;15.90;1.00
3976;DHT22;2002;48.812;9.180;2022-12-20T06:57:41;15.90;1.00
3976;DHT22;2002;48.812;9.180;2022-12-20T07:00:07;15.90;1.00
3976;DHT22;2002;48.812;9.180;2022-12-20T07:02:35;15.90;1.00
3976;DHT22;2002;48.812;9.180;2022-12-20T07:05:01;15.80;1.00
3976;DHT22;2002;48.812;9.180;2022-12-20T07:07:26;15.80;1.00
3976;DHT22;2002;48.812;9.180;2022-12-20T07:09:52;15.80;1.00
3976;DHT22;2002;48.812;9.180;2022-12-20T07:12:17;15.80;1.00
3976;DHT22;2002;48.812;9.180;2022-12-20T07:14:43;16.00;1.00
3976;DHT22;2002;48.812;9.180;2022-12-20T07:17:08;16.40;1.00
3976;DHT22;2002;48.812;9.180;2022-12-20T07:19:34;17.00;1.00
3976;DHT22;2002;48.812;9.180;2022-12-20T07:22:01;17.40;1.00
3976;DHT22;2002;48.812;9.180;2022-12-20T07:24:26;17.50;1.00
3976;DHT22;2002;48.812;9.180;2022-12-20T07:26:52;17.50;1.00
3976;DHT22;2002;48.812;9.180;2022-12-20T07:29:17;17.50;1.00
3976;DHT22;2002;48.812;9.180;2022-12-20T07:31:43;17.30;1.00
3976;DHT22;2002;48.812;9.180;2022-12-20T07:34:09;17.20;1.00
3976;DHT22;2002;48.812;9.180;2022-12-20T07:36:35;17.10;1.00
3976;DHT22;2002;48.812;9.180;2022-12-20T07:39:01;17.00;1.00
3976;DHT22;2002;48.812;9.180;2022-12-20T07:41:26;16.80;1.00
3976;DHT22;2002;48.812;9.180;2022-12-20T07:43:52;16.70;1.00
3976;DHT22;2002;48.812;9.180;2022-12-20T07:46:18;16.60;1.00
3976;DHT22;2002;48.812;9.180;2022-12-20T07:48:43;16.60;1.00
3976;DHT22;2002;48.812;9.180;2022-12-20T07:51:20;16.50;1.00
3976;DHT22;2002;48.812;9.180;2022-12-20T07:54:11;16.50;1.00
3976;DHT22;2002;48.812;9.180;2022-12-20T07:56:40;16.40;1.00
3976;DHT22;2002;48.812;9.180;2022-12-20T07:59:08;16.30;1.00
3976;DHT22;2002;48.812;9.180;2022-12-20T08:01:35;16.40;1.00
3976;DHT22;2002;48.812;9.180;2022-12-20T08:04:08;16.30;1.00
3976;DHT22;2002;48.812;9.180;2022-12-20T08:06:36;16.20;1.00
3976;DHT22;2002;48.812;9.180;2022-12-20T08:09:04;16.20;1.00
3976;DHT22;2002;48.812;9.180;2022-12-20T08:11:33;16.20;1.00
3976;DHT22;2002;48.812;9.180;2022-12-20T08:13:59;16.10;1.00
3976;DHT22;2002;48.812;9.180;2022-12-20T08:16:25;16.00;1.00
3976;DHT22;2002;48.812;9.180;2022-12-20T08:18:51;16.00;1.00
3976;DHT22;2002;48.812;9.180;2022-12-20T08:21:17;16.00;1.00
3976;DHT22;2002;48.812;9.180;2022-12-20T08:23:43;15.90;1.00
3976;DHT22;2002;48.812;9.180;2022-12-20T08:26:09;15.90;1.00
3976;DHT22;2002;48.812;9.180;2022-12-20T08:28:34;15.90;1.00
3976;DHT22;2002;48.812;9.180;2022-12-20T08:31:04;15.90;1.00
3976;DHT22;2002;48.812;9.180;2022-12-20T08:33:31;16.00;1.00
3976;DHT22;2002;48.812;9.180;2022-12-20T08:36:03;15.90;1.00
3976;DHT22;2002;48.812;9.180;2022-12-20T08:38:30;15.90;1.00
3976;DHT22;2002;48.812;9.180;2022-12-20T08:41:04;16.00;1.00
3976;DHT22;2002;48.812;9.180;2022-12-20T08:43:31;15.90;1.00
3976;DHT22;2002;48.812;9.180;2022-12-20T08:45:57;15.90;1.00
3976;DHT22;2002;48.812;9.180;2022-12-20T08:48:22;15.80;1.00
3976;DHT22;2002;48.812;9.180;2022-12-20T08:50:56;15.80;1.00
3976;DHT22;2002;48.812;9.180;2022-12-20T08:53:22;15.90;1.00
3976;DHT22;2002;48.812;9.180;2022-12-20T08:55:48;15.80;1.00
3976;DHT22;2002;48.812;9.180;2022-12-20T08:58:13;15.80;1.00
3976;DHT22;2002;48.812;9.180;2022-12-20T09:00:40;15.80;1.00
3976;DHT22;2002;48.812;9.180;2022-12-20T09:03:06;15.80;1.00
3976;DHT22;2002;48.812;9.180;2022-12-20T09:05:32;15.80;1.00
3976;DHT22;2002;48.812;9.180;2022-12-20T09:07:58;15.80;1.00
3976;DHT22;2002;48.812;9.180;2022-12-20T09:10:24;16.20;1.00
3976;DHT22;2002;48.812;9.180;2022-12-20T09:12:50;16.90;1.00
3976;DHT22;2002;48.812;9.180;2022-12-20T09:15:15;17.40;1.00
3976;DHT22;2002;48.812;9.180;2022-12-20T09:17:41;17.60;1.00
3976;DHT22;2002;48.812;9.180;2022-12-20T09:20:07;17.60;1.00
3976;DHT22;2002;48.812;9.180;2022-12-20T09:22:32;17.50;1.00
3976;DHT22;2002;48.812;9.180;2022-12-20T09:24:58;17.40;1.00
3976;DHT22;2002;48.812;9.180;2022-12-20T09:27:23;17.30;1.00
3976;DHT22;2002;48.812;9.180;2022-12-20T09:29:49;17.20;1.00
3976;DHT22;2002;48.812;9.180;2022-12-20T09:32:15;17.10;1.00
3976;DHT22;2002;48.812;9.180;2022-12-20T09:34:40;16.90;1.00
3976;DHT22;2002;48.812;9.180;2022-12-20T09:37:06;17.00;1.00
3976;DHT22;2002;48.812;9.180;2022-12-20T09:39:32;16.80;1.00
3976;DHT22;2002;48.812;9.180;2022-12-20T09:41:57;16.70;1.00
3976;DHT22;2002;48.812;9.180;2022-12-20T09:44:33;16.70;1.00
3976;DHT22;2002;48.812;9.180;2022-12-20T09:47:04;16.50;1.00
3976;DHT22;2002;48.812;9.180;2022-12-20T09:49:34;16.50;1.00
3976;DHT22;2002;48.812;9.180;2022-12-20T09:55:30;16.30;1.00
3976;DHT22;2002;48.812;9.180;2022-12-20T10:00:17;16.20;1.00
3976;DHT22;2002;48.812;9.180;2022-12-20T10:02:43;16.20;1.00
3976;DHT22;2002;48.812;9.180;2022-12-20T10:05:15;16.10;1.00
3976;DHT22;2002;48.812;9.180;2022-12-20T10:07:54;16.10;1.00
3976;DHT22;2002;48.812;9.180;2022-12-20T10:13:37;16.10;1.00
3976;DHT22;2002;48.812;9.180;2022-12-20T10:21:33;16.00;1.00
3976;DHT22;2002;48.812;9.180;2022-12-20T10:24:06;15.90;1.00
3976;DHT22;2002;48.812;9.180;2022-12-20T10:26:34;15.90;1.00
3976;DHT22;2002;48.812;9.180;2022-12-20T10:29:00;15.90;1.00
3976;DHT22;2002;48.812;9.180;2022-12-20T10:31:26;15.90;1.00
3976;DHT22;2002;48.812;9.180;2022-12-20T10:33:52;15.90;1.00
3976;DHT22;2002;48.812;9.180;2022-12-20T10:36:32;15.90;1.00
3976;DHT22;2002;48.812;9.180;2022-12-20T10:39:06;15.90;1.00
3976;DHT22;2002;48.812;9.180;2022-12-20T10:44:25;15.80;1.00
3976;DHT22;2002;48.812;9.180;2022-12-20T10:46:58;15.80;1.00
3976;DHT22;2002;48.812;9.180;2022-12-20T10:49:35;15.80;1.00
3976;DHT22;2002;48.812;9.180;2022-12-20T10:52:10;15.80;1.00
3976;DHT22;2002;48.812;9.180;2022-12-20T10:54:41;15.80;1.00
3976;DHT22;2002;48.812;9.180;2022-12-20T10:59:52;15.80;1.00
3976;DHT22;2002;48.812;9.180;2022-12-20T11:02:33;15.90;1.00
3976;DHT22;2002;48.812;9.180;2022-12-20T11:07:29;17.00;1.00
3976;DHT22;2002;48.812;9.180;2022-12-20T11:09:58;17.30;1.00
3976;DHT22;2002;48.812;9.180;2022-12-20T11:12:24;17.40;1.00
3976;DHT22;2002;48.812;9.180;2022-12-20T11:15:07;17.40;1.00
3976;DHT22;2002;48.812;9.180;2022-12-20T11:18:22;17.30;1.00
3976;DHT22;2002;48.812;9.180;2022-12-20T11:20:37;17.20;1.00
3976;DHT22;2002;48.812;9.180;2022-12-20T11:26:34;17.00;1.00
3976;DHT22;2002;48.812;9.180;2022-12-20T11:35:31;16.60;1.00
3976;DHT22;2002;48.812;9.180;2022-12-20T11:38:06;16.60;1.00
3976;DHT22;2002;48.812;9.180;2022-12-20T11:55:31;16.20;1.00
3976;DHT22;2002;48.812;9.180;2022-12-20T11:58:01;16.20;1.00
3976;DHT22;2002;48.812;9.180;2022-12-20T12:00:32;16.10;1.00
3976;DHT22;2002;48.812;9.180;2022-12-20T12:05:44;16.00;1.00
3976;DHT22;2002;48.812;9.180;2022-12-20T12:08:19;16.00;1.00
3976;DHT22;2002;48.812;9.180;2022-12-20T12:11:14;16.00;1.00
3976;DHT22;2002;48.812;9.180;2022-12-20T12:13:42;15.90;1.00
3976;DHT22;2002;48.812;9.180;2022-12-20T12:16:15;15.90;1.00
3976;DHT22;2002;48.812;9.180;2022-12-20T12:18:42;16.00;1.00
3976;DHT22;2002;48.812;9.180;2022-12-20T12:21:23;16.00;1.00
3976;DHT22;2002;48.812;9.180;2022-12-20T12:26:32;15.90;1.00
3976;DHT22;2002;48.812;9.180;2022-12-20T12:34:38;15.90;1.00
3976;DHT22;2002;48.812;9.180;2022-12-20T12:43:44;15.80;1.00
3976;DHT22;2002;48.812;9.180;2022-12-20T12:46:02;15.80;1.00
3976;DHT22;2002;48.812;9.180;2022-12-20T12:48:42;15.80;1.00
3976;DHT22;2002;48.812;9.180;2022-12-20T12:51:11;15.90;1.00
3976;DHT22;2002;48.812;9.180;2022-12-20T12:53:43;16.50;1.00
3976;DHT22;2002;48.812;9.180;2022-12-20T13:01:53;17.40;1.00
3976;DHT22;2002;48.812;9.180;2022-12-20T13:06:56;17.30;1.00
3976;DHT22;2002;48.812;9.180;2022-12-20T13:11:54;17.10;1.00
3976;DHT22;2002;48.812;9.180;2022-12-20T13:27:27;16.60;1.00
3976;DHT22;2002;48.812;9.180;2022-12-20T13:38:29;16.40;1.00
3976;DHT22;2002;48.812;9.180;2022-12-20T13:41:00;16.30;1.00
3976;DHT22;2002;48.812;9.180;2022-12-20T13:43:35;16.20;1.00
3976;DHT22;2002;48.812;9.180;2022-12-20T13:51:19;16.10;1.00
3976;DHT22;2002;48.812;9.180;2022-12-20T13:59:26;16.00;1.00
3976;DHT22;2002;48.812;9.180;2022-12-20T14:01:55;16.00;1.00
3976;DHT22;2002;48.812;9.180;2022-12-20T14:04:23;16.00;1.00
3976;DHT22;2002;48.812;9.180;2022-12-20T14:06:53;16.00;1.00
3976;DHT22;2002;48.812;9.180;2022-12-20T14:12:16;15.90;1.00
3976;DHT22;2002;48.812;9.180;2022-12-20T14:14:44;15.90;1.00
3976;DHT22;2002;48.812;9.180;2022-12-20T14:17:21;15.90;1.00
3976;DHT22;2002;48.812;9.180;2022-12-20T14:20:00;15.90;1.00
3976;DHT22;2002;48.812;9.180;2022-12-20T14:22:26;15.90;1.00
3976;DHT22;2002;48.812;9.180;2022-12-20T14:24:51;15.90;1.00
3976;DHT22;2002;48.812;9.180;2022-12-20T14:27:18;15.80;1.00
3976;DHT22;2002;48.812;9.180;2022-12-20T14:29:44;15.80;1.00
3976;DHT22;2002;48.812;9.180;2022-12-20T14:32:18;15.80;1.00
3976;DHT22;2002;48.812;9.180;2022-12-20T14:34:43;15.80;1.00
3976;DHT22;2002;48.812;9.180;2022-12-20T14:42:35;17.20;1.00
3976;DHT22;2002;48.812;9.180;2022-12-20T14:47:34;17.70;1.00
3976;DHT22;2002;48.812;9.180;2022-12-20T14:50:12;17.60;1.00
3976;DHT22;2002;48.812;9.180;2022-12-20T14:52:41;17.50;1.00
3976;DHT22;2002;48.812;9.180;2022-12-20T14:55:17;17.40;1.00
3976;DHT22;2002;48.812;9.180;2022-12-20T15:08:31;16.80;1.00
3976;DHT22;2002;48.812;9.180;2022-12-20T15:13:35;16.60;1.00
3976;DHT22;2002;48.812;9.180;2022-12-20T15:16:12;16.60;1.00
3976;DHT22;2002;48.812;9.180;2022-12-20T15:18:38;16.50;1.00
3976;DHT22;2002;48.812;9.180;2022-12-20T15:21:11;16.40;1.00
3976;DHT22;2002;48.812;9.180;2022-12-20T15:23:45;16.40;1.00
3976;DHT22;2002;48.812;9.180;2022-12-20T15:26:14;16.40;1.00
3976;DHT22;2002;48.812;9.180;2022-12-20T15:28:40;16.30;1.00
3976;DHT22;2002;48.812;9.180;2022-12-20T15:31:12;16.20;1.00
3976;DHT22;2002;48.812;9.180;2022-12-20T15:33:39;16.20;1.00
3976;DHT22;2002;48.812;9.180;2022-12-20T15:36:05;16.10;1.00
3976;DHT22;2002;48.812;9.180;2022-12-20T15:38:31;16.10;1.00
3976;DHT22;2002;48.812;9.180;2022-12-20T15:41:02;16.00;1.00
3976;DHT22;2002;48.812;9.180;2022-12-20T15:43:33;16.00;1.00
3976;DHT22;2002;48.812;9.180;2022-12-20T15:46:00;16.00;1.00
3976;DHT22;2002;48.812;9.180;2022-12-20T15:48:26;15.90;1.00
3976;DHT22;2002;48.812;9.180;2022-12-20T15:50:52;15.90;1.00
3976;DHT22;2002;48.812;9.180;2022-12-20T15:53:22;15.90;1.00
3976;DHT22;2002;48.812;9.180;2022-12-20T15:55:50;15.80;1.00
3976;DHT22;2002;48.812;9.180;2022-12-20T15:58:16;15.80;1.00
3976;DHT22;2002;48.812;9.180;2022-12-20T16:00:41;15.80;1.00
3976;DHT22;2002;48.812;9.180;2022-12-20T16:03:17;15.80;1.00
3976;DHT22;2002;48.812;9.180;2022-12-20T16:05:45;15.80;1.00
3976;DHT22;2002;48.812;9.180;2022-12-20T16:08:11;15.80;1.00
3976;DHT22;2002;48.812;9.180;2022-12-20T16:10:37;15.80;1.00
3976;DHT22;2002;48.812;9.180;2022-12-20T16:13:03;15.80;1.00
3976;DHT22;2002;48.812;9.180;2022-12-20T16:15:29;15.70;1.00
3976;DHT22;2002;48.812;9.180;2022-12-20T16:17:54;15.80;1.00
3976;DHT22;2002;48.812;9.180;2022-12-20T16:20:20;15.70;1.00
3976;DHT22;2002;48.812;9.180;2022-12-20T16:22:46;15.70;1.00
3976;DHT22;2002;48.812;9.180;2022-12-20T16:25:37;15.70;1.00
3976;DHT22;2002;48.812;9.180;2022-12-20T16:28:03;15.80;1.00
3976;DHT22;2002;48.812;9.180;2022-12-20T16:30:29;16.00;1.00
3976;DHT22;2002;48.812;9.180;2022-12-20T16:32:54;16.50;1.00
3976;DHT22;2002;48.812;9.180;2022-12-20T16:35:29;16.80;1.00
3976;DHT22;2002;48.812;9.180;2022-12-20T16:37:56;16.90;1.00
3976;DHT22;2002;48.812;9.180;2022-12-20T16:40:26;17.00;1.00
3976;DHT22;2002;48.812;9.180;2022-12-20T16:42:52;16.90;1.00
3976;DHT22;2002;48.812;9.180;2022-12-20T16:45:24;16.90;1.00
3976;DHT22;2002;48.812;9.180;2022-12-20T16:47:50;16.80;1.00
3976;DHT22;2002;48.812;9.180;2022-12-20T16:50:18;16.70;1.00
3976;DHT22;2002;48.812;9.180;2022-12-20T16:52:44;16.70;1.00
3976;DHT22;2002;48.812;9.180;2022-12-20T16:55:20;16.60;1.00
3976;DHT22;2002;48.812;9.180;2022-12-20T16:57:46;16.50;1.00
3976;DHT22;2002;48.812;9.180;2022-12-20T17:00:22;16.50;1.00
3976;DHT22;2002;48.812;9.180;2022-12-20T17:02:48;16.40;1.00
3976;DHT22;2002;48.812;9.180;2022-12-20T17:05:25;16.40;1.00
3976;DHT22;2002;48.812;9.180;2022-12-20T17:07:52;16.30;1.00
3976;DHT22;2002;48.812;9.180;2022-12-20T17:10:17;16.30;1.00
3976;DHT22;2002;48.812;9.180;2022-12-20T17:12:43;16.30;1.00
3976;DHT22;2002;48.812;9.180;2022-12-20T17:15:29;16.20;1.00
3976;DHT22;2002;48.812;9.180;2022-12-20T17:17:56;16.10;1.00
3976;DHT22;2002;48.812;9.180;2022-12-20T17:20:23;16.10;1.00
3976;DHT22;2002;48.812;9.180;2022-12-20T17:22:52;16.00;1.00
3976;DHT22;2002;48.812;9.180;2022-12-20T17:25:22;16.00;1.00
3976;DHT22;2002;48.812;9.180;2022-12-20T17:27:48;16.00;1.00
3976;DHT22;2002;48.812;9.180;2022-12-20T17:30:15;15.90;1.00
3976;DHT22;2002;48.812;9.180;2022-12-20T17:32:40;15.90;1.00
3976;DHT22;2002;48.812;9.180;2022-12-20T17:35:16;15.90;1.00
3976;DHT22;2002;48.812;9.180;2022-12-20T17:37:44;15.80;1.00
3976;DHT22;2002;48.812;9.180;2022-12-20T17:40:12;15.80;1.00
3976;DHT22;2002;48.812;9.180;2022-12-20T17:42:38;15.80;1.00
3976;DHT22;2002;48.812;9.180;2022-12-20T17:45:04;15.80;1.00
3976;DHT22;2002;48.812;9.180;2022-12-20T17:47:30;15.70;1.00
3976;DHT22;2002;48.812;9.180;2022-12-20T17:49:55;15.70;1.00
3976;DHT22;2002;48.812;9.180;2022-12-20T17:52:21;15.70;1.00
3976;DHT22;2002;48.812;9.180;2022-12-20T17:54:46;15.70;1.00
3976;DHT22;2002;48.812;9.180;2022-12-20T17:57:13;15.70;1.00
3976;DHT22;2002;48.812;9.180;2022-12-20T17:59:39;15.80;1.00
3976;DHT22;2002;48.812;9.180;2022-12-20T18:02:21;16.10;1.00
3976;DHT22;2002;48.812;9.180;2022-12-20T18:04:47;16.30;1.00
3976;DHT22;2002;48.812;9.180;2022-12-20T18:07:12;16.50;1.00
3976;DHT22;2002;48.812;9.180;2022-12-20T18:09:38;16.60;1.00
3976;DHT22;2002;48.812;9.180;2022-12-20T18:12:03;16.60;1.00
3976;DHT22;2002;48.812;9.180;2022-12-20T18:14:29;16.60;1.00
3976;DHT22;2002;48.812;9.180;2022-12-20T18:16:55;16.60;1.00
3976;DHT22;2002;48.812;9.180;2022-12-20T18:19:20;16.60;1.00
3976;DHT22;2002;48.812;9.180;2022-12-20T18:21:46;16.50;1.00
3976;DHT22;2002;48.812;9.180;2022-12-20T18:24:13;16.40;1.00
3976;DHT22;2002;48.812;9.180;2022-12-20T18:26:39;16.30;1.00
3976;DHT22;2002;48.812;9.180;2022-12-20T18:29:05;16.30;1.00
3976;DHT22;2002;48.812;9.180;2022-12-20T18:31:32;16.30;1.00
3976;DHT22;2002;48.812;9.180;2022-12-20T18:33:59;16.20;1.00
3976;DHT22;2002;48.812;9.180;2022-12-20T18:36:28;16.20;1.00
3976;DHT22;2002;48.812;9.180;2022-12-20T18:38:55;16.20;1.00
3976;DHT22;2002;48.812;9.180;2022-12-20T18:41:25;16.10;1.00
3976;DHT22;2002;48.812;9.180;2022-12-20T18:43:52;16.10;1.00
3976;DHT22;2002;48.812;9.180;2022-12-20T18:46:20;16.10;1.00